Time;durP1;ratioP1;P1;durP2;ratioP2;P2;SDS_P1;SDS_P2;PMS_P1;PMS_P2;Temp;Humidity;BMP_temperature;BMP_pressure;BME280_temperature;BME280_humidity;BME280_pressure;Samples;Min_cycle;Max_cycle;Signal;HPM_P1;HPM_P2
2024/01/15 05:06:09;;;;;;;0.43;0.43;;;0.40;99.90;;;;;;5659994;23;20690;-65
2024/01/15 05:08:34;;;;;;;0.40;0.40;;;0.40;99.90;;;;;;5006875;28;20600;-68
2024/01/15 05:11:00;;;;;;;0.40;0.40;;;0.40;99.90;;;;;;4995939;28;20176;-65
2024/01/15 05:13:25;;;;;;;0.40;0.40;;;0.40;99.90;;;;;;5006559;28;20206;-65
2024/01/15 05:15:51;;;;;;;0.80;0.80;;;0.40;99.90;;;;;;5014811;28;20688;-66
2024/01/15 05:18:17;;;;;;;0.40;0.40;;;0.50;99.90;;;;;;5013979;28;20742;-66
2024/01/15 05:20:42;;;;;;;0.30;0.30;;;0.50;99.90;;;;;;5014488;28;20624;-66
2024/01/15 05:23:08;;;;;;;0.30;0.30;;;0.60;99.90;;;;;;4997221;28;20422;-66
2024/01/15 05:25:34;;;;;;;0.30;0.30;;;0.70;99.90;;;;;;5003477;28;20195;-67
2024/01/15 05:27:59;;;;;;;0.30;0.30;;;0.70;99.90;;;;;;4977945;28;20199;-66
2024/01/15 05:30:25;;;;;;;0.40;0.40;;;0.80;99.90;;;;;;4977679;28;20184;-66
2024/01/15 05:32:51;;;;;;;0.40;0.40;;;0.80;99.90;;;;;;4995238;28;20424;-63
2024/01/15 05:35:16;;;;;;;0.40;0.40;;;0.90;99.90;;;;;;4993992;28;20191;-67
2024/01/15 05:37:47;;;;;;;0.50;0.50;;;0.90;99.90;;;;;;4994652;28;20203;-64
2024/01/15 05:40:13;;;;;;;0.40;0.40;;;0.90;99.90;;;;;;4977516;28;20636;-66
2024/01/15 05:42:39;;;;;;;0.37;0.37;;;1.00;99.90;;;;;;4995340;28;20172;-67
2024/01/15 05:45:05;;;;;;;0.45;0.45;;;1.10;99.90;;;;;;4994338;28;20423;-67
2024/01/15 05:47:31;;;;;;;0.40;0.40;;;1.10;99.90;;;;;;4993071;28;20167;-65
2024/01/15 05:49:58;;;;;;;0.50;0.50;;;1.10;99.90;;;;;;4992966;28;20171;-67
2024/01/15 05:52:23;;;;;;;0.30;0.30;;;1.10;99.90;;;;;;4992961;28;20172;-65
2024/01/15 05:54:49;;;;;;;0.30;0.30;;;1.10;99.90;;;;;;4992568;28;20230;-67
2024/01/15 05:57:15;;;;;;;0.40;0.40;;;1.10;99.90;;;;;;4975157;28;20235;-66
2024/01/15 05:59:41;;;;;;;0.33;0.33;;;1.20;99.90;;;;;;4975285;28;20266;-67
2024/01/15 06:02:06;;;;;;;0.30;0.30;;;1.20;99.90;;;;;;5004929;28;20181;-65
2024/01/15 06:04:32;;;;;;;0.53;0.53;;;1.20;99.90;;;;;;5013750;28;20163;-64
2024/01/15 06:06:57;;;;;;;0.30;0.30;;;1.20;99.90;;;;;;5014377;28;20203;-65
2024/01/15 06:09:23;;;;;;;0.30;0.30;;;1.20;99.90;;;;;;5014303;28;20269;-65
2024/01/15 06:11:48;;;;;;;0.40;0.40;;;1.20;99.90;;;;;;5014144;28;20179;-67
2024/01/15 06:14:14;;;;;;;0.50;0.50;;;1.30;99.90;;;;;;5013515;28;20177;-66
2024/01/15 06:16:40;;;;;;;0.50;0.50;;;1.30;99.90;;;;;;5006149;28;20660;-66
2024/01/15 06:19:05;;;;;;;0.30;0.30;;;1.30;99.90;;;;;;5004516;28;20648;-65
2024/01/15 06:21:31;;;;;;;0.40;0.40;;;1.30;99.90;;;;;;4995088;28;20174;-67
2024/01/15 06:23:57;;;;;;;0.40;0.40;;;1.30;99.90;;;;;;5001381;28;20254;-65
2024/01/15 06:26:23;;;;;;;0.40;0.40;;;1.30;99.90;;;;;;4995906;28;20252;-64
2024/01/15 06:28:48;;;;;;;0.40;0.40;;;1.40;99.90;;;;;;5000484;28;20179;-64
2024/01/15 06:31:14;;;;;;;0.30;0.30;;;1.40;99.90;;;;;;4994208;28;20180;-66
2024/01/15 06:33:40;;;;;;;0.77;0.77;;;1.40;99.90;;;;;;4994431;28;20194;-66
2024/01/15 06:36:06;;;;;;;0.40;0.40;;;1.40;99.90;;;;;;4993734;28;20191;-65
2024/01/15 06:38:33;;;;;;;0.30;0.30;;;1.40;99.90;;;;;;4993877;28;20482;-66
2024/01/15 06:40:59;;;;;;;0.40;0.40;;;1.40;99.90;;;;;;4993902;28;20191;-65
2024/01/15 06:43:25;;;;;;;0.40;0.40;;;1.40;99.90;;;;;;4994213;28;20184;-64
2024/01/15 06:45:51;;;;;;;0.30;0.30;;;1.40;99.90;;;;;;4993694;28;20423;-64
2024/01/15 06:48:16;;;;;;;0.30;0.30;;;1.40;99.90;;;;;;4993830;28;20186;-66
2024/01/15 06:50:43;;;;;;;0.80;0.80;;;1.40;99.90;;;;;;4993986;28;20176;-65
2024/01/15 06:53:08;;;;;;;0.40;0.40;;;1.40;99.90;;;;;;4993954;28;20175;-66
2024/01/15 06:55:34;;;;;;;0.30;0.30;;;1.40;99.90;;;;;;4975986;28;20198;-66
2024/01/15 06:58:00;;;;;;;0.40;0.40;;;1.30;99.90;;;;;;4993865;28;20198;-65
2024/01/15 07:00:27;;;;;;;0.30;0.30;;;1.40;99.90;;;;;;5002147;28;20544;-64
2024/01/15 07:02:53;;;;;;;0.40;0.40;;;1.40;99.90;;;;;;5013410;28;20183;-64
2024/01/15 07:05:20;;;;;;;0.40;0.40;;;1.30;99.90;;;;;;5013291;28;20194;-63
2024/01/15 07:07:45;;;;;;;0.30;0.30;;;1.30;99.90;;;;;;5011833;28;20516;-65
2024/01/15 07:10:11;;;;;;;0.40;0.40;;;1.40;99.90;;;;;;5013277;28;20676;-64
2024/01/15 07:12:36;;;;;;;0.30;0.30;;;1.40;99.90;;;;;;5008567;28;20340;-64
2024/01/15 07:15:03;;;;;;;0.40;0.40;;;1.40;99.90;;;;;;4980797;28;20518;-64
2024/01/15 07:17:30;;;;;;;0.50;0.50;;;1.40;99.90;;;;;;5008323;28;20207;-64
2024/01/15 07:19:56;;;;;;;0.30;0.30;;;1.50;99.90;;;;;;5013170;28;20181;-64
2024/01/15 07:22:22;;;;;;;0.40;0.40;;;1.50;99.90;;;;;;5016534;28;20162;-63
2024/01/15 07:24:47;;;;;;;0.50;0.50;;;1.40;99.90;;;;;;5017071;28;20644;-64
2024/01/15 07:27:13;;;;;;;0.33;0.33;;;1.40;99.90;;;;;;5009134;28;20202;-64
2024/01/15 07:29:38;;;;;;;0.30;0.30;;;1.40;99.90;;;;;;5004021;28;20202;-64
2024/01/15 07:32:05;;;;;;;0.40;0.40;;;1.50;99.90;;;;;;5015531;28;20241;-63
2024/01/15 07:34:30;;;;;;;0.50;0.50;;;1.50;99.90;;;;;;5016779;28;20250;-66
2024/01/15 07:36:57;;;;;;;0.30;0.30;;;1.50;99.90;;;;;;5013930;28;20289;-65
2024/01/15 07:39:24;;;;;;;0.40;0.40;;;1.50;99.90;;;;;;4994757;28;20180;-68
2024/01/15 07:41:50;;;;;;;0.40;0.40;;;1.60;99.90;;;;;;4999661;28;20174;-64
2024/01/15 07:44:19;;;;;;;0.40;0.40;;;1.60;99.90;;;;;;4997714;28;20535;-66
2024/01/15 07:46:45;;;;;;;0.47;0.47;;;1.60;99.90;;;;;;4996901;28;20430;-64
2024/01/15 07:49:11;;;;;;;0.47;0.47;;;1.70;99.90;;;;;;4996416;28;20175;-62
2024/01/15 07:51:37;;;;;;;0.45;0.45;;;1.70;99.90;;;;;;4996895;28;20634;-65
2024/01/15 07:54:03;;;;;;;0.30;0.30;;;1.70;99.90;;;;;;4996774;28;20179;-66
2024/01/15 07:56:28;;;;;;;0.30;0.30;;;1.70;99.90;;;;;;5001309;28;20260;-62
2024/01/15 07:58:54;;;;;;;0.40;0.40;;;1.70;99.90;;;;;;5015812;28;20233;-65
2024/01/15 08:01:20;;;;;;;0.30;0.30;;;1.80;99.90;;;;;;5016066;28;20178;-65
2024/01/15 08:03:45;;;;;;;0.40;0.40;;;1.80;99.90;;;;;;5015183;28;20640;-65
2024/01/15 08:06:11;;;;;;;0.40;0.40;;;1.80;99.90;;;;;;5015616;28;20206;-64
2024/01/15 08:08:40;;;;;;;0.40;0.40;;;1.80;99.90;;;;;;5002297;28;20272;-66
2024/01/15 08:11:05;;;;;;;0.32;0.32;;;1.90;99.90;;;;;;4996586;28;20239;-64
2024/01/15 08:13:31;;;;;;;0.30;0.30;;;1.90;99.90;;;;;;5000406;28;20250;-64
2024/01/15 08:15:57;;;;;;;0.30;0.30;;;2.00;99.90;;;;;;5014120;28;20264;-64
2024/01/15 08:18:22;;;;;;;0.40;0.40;;;2.00;99.90;;;;;;5002419;28;20461;-64
2024/01/15 08:20:48;;;;;;;0.30;0.30;;;2.00;99.90;;;;;;4996527;28;20258;-66
2024/01/15 08:23:13;;;;;;;0.33;0.33;;;2.00;99.90;;;;;;4996236;28;20646;-63
2024/01/15 08:25:39;;;;;;;0.40;0.40;;;2.00;99.90;;;;;;4996033;28;20191;-66
2024/01/15 08:28:05;;;;;;;0.30;0.30;;;2.10;99.90;;;;;;4996381;28;20246;-63
2024/01/15 08:30:30;;;;;;;0.40;0.40;;;2.10;99.90;;;;;;5004251;28;20502;-65
2024/01/15 08:32:56;;;;;;;0.33;0.33;;;2.10;99.90;;;;;;5006008;28;20187;-61
2024/01/15 08:35:22;;;;;;;0.40;0.40;;;2.10;99.90;;;;;;5008333;28;20622;-63
2024/01/15 08:37:52;;;;;;;0.40;0.40;;;2.20;99.90;;;;;;5007293;28;20275;-64
2024/01/15 08:40:18;;;;;;;0.30;0.30;;;2.20;99.90;;;;;;4995973;28;20484;-64
2024/01/15 08:42:45;;;;;;;0.40;0.40;;;2.20;99.90;;;;;;4995999;28;20173;-63
2024/01/15 08:45:11;;;;;;;0.30;0.30;;;2.20;99.90;;;;;;4996221;28;20500;-63
2024/01/15 08:47:36;;;;;;;0.60;0.60;;;2.30;99.90;;;;;;4995874;28;20263;-62
2024/01/15 08:50:03;;;;;;;0.40;0.40;;;2.30;99.90;;;;;;4995779;28;20924;-63
2024/01/15 08:52:28;;;;;;;0.38;0.38;;;2.30;99.90;;;;;;4977997;28;20198;-65
2024/01/15 08:54:55;;;;;;;0.33;0.33;;;2.40;99.90;;;;;;4995111;28;20212;-64
2024/01/15 08:57:22;;;;;;;0.50;0.50;;;2.30;99.90;;;;;;4995601;28;20207;-65
2024/01/15 08:59:47;;;;;;;0.40;0.40;;;2.30;99.90;;;;;;4995685;28;20186;-65
2024/01/15 09:02:13;;;;;;;0.30;0.30;;;2.30;99.90;;;;;;4995358;28;20175;-66
2024/01/15 09:04:38;;;;;;;0.50;0.50;;;2.40;99.90;;;;;;4995404;28;20178;-65
2024/01/15 09:07:04;;;;;;;0.40;0.40;;;2.50;99.90;;;;;;4995114;28;20215;-63
2024/01/15 09:09:30;;;;;;;0.30;0.30;;;2.50;99.90;;;;;;5003572;28;20645;-63
2024/01/15 09:11:56;;;;;;;0.30;0.30;;;2.60;99.90;;;;;;5015007;28;20194;-63
2024/01/15 09:14:22;;;;;;;0.30;0.30;;;2.70;99.90;;;;;;4996720;28;20701;-62
2024/01/15 09:16:48;;;;;;;0.38;0.38;;;2.70;99.90;;;;;;5008781;28;20198;-64
2024/01/15 09:19:13;;;;;;;0.40;0.40;;;2.70;99.90;;;;;;5014814;28;20203;-63
2024/01/15 09:21:40;;;;;;;0.40;0.40;;;2.80;99.90;;;;;;5014674;28;20653;-66
2024/01/15 09:24:05;;;;;;;0.30;0.30;;;2.90;99.90;;;;;;4994658;28;20250;-65
2024/01/15 09:26:31;;;;;;;0.40;0.40;;;2.90;99.90;;;;;;4994940;28;20232;-64
2024/01/15 09:28:57;;;;;;;0.43;0.43;;;3.00;99.90;;;;;;4994717;28;20262;-65
2024/01/15 09:31:23;;;;;;;0.30;0.30;;;3.00;99.90;;;;;;5005063;28;20183;-63
2024/01/15 09:33:52;;;;;;;0.30;0.30;;;3.00;99.90;;;;;;4996126;28;20537;-64
2024/01/15 09:36:18;;;;;;;0.40;0.40;;;3.00;99.90;;;;;;4996023;28;20197;-64
2024/01/15 09:38:43;;;;;;;0.47;0.47;;;3.00;99.90;;;;;;4999097;28;20203;-62
2024/01/15 09:41:10;;;;;;;0.53;0.53;;;3.00;99.90;;;;;;4994696;28;20514;-65
2024/01/15 09:43:37;;;;;;;0.70;0.70;;;3.10;99.90;;;;;;4999346;28;20181;-63
2024/01/15 09:46:03;;;;;;;0.43;0.43;;;3.10;99.90;;;;;;5009522;28;20275;-67
2024/01/15 09:48:29;;;;;;;0.40;0.40;;;3.20;99.90;;;;;;4994951;28;20195;-62
2024/01/15 09:50:58;;;;;;;0.37;0.37;;;3.20;99.90;;;;;;4994334;28;20168;-64
2024/01/15 09:53:25;;;;;;;0.35;0.35;;;3.20;99.90;;;;;;5000605;28;20178;-66
2024/01/15 09:55:52;;;;;;;0.30;0.30;;;3.20;99.90;;;;;;5013793;28;20224;-64
2024/01/15 09:58:18;;;;;;;0.30;0.30;;;3.20;99.90;;;;;;5013489;28;20251;-64
2024/01/15 10:00:44;;;;;;;0.30;0.30;;;3.30;99.90;;;;;;5001404;28;20182;-65
2024/01/15 10:03:11;;;;;;;0.50;0.50;;;3.30;99.90;;;;;;5002025;28;20180;-64
2024/01/15 10:05:37;;;;;;;0.65;0.65;;;3.30;99.90;;;;;;4994040;28;20267;-66
2024/01/15 10:08:04;;;;;;;0.40;0.40;;;3.30;99.90;;;;;;4999223;28;20322;-63
2024/01/15 10:10:30;;;;;;;0.40;0.40;;;3.40;99.90;;;;;;4994444;28;20487;-65
2024/01/15 10:12:56;;;;;;;0.40;0.40;;;3.40;99.90;;;;;;5002520;28;20183;-61
2024/01/15 10:15:26;;;;;;;0.37;0.37;;;3.40;99.90;;;;;;5004627;28;20396;-66
2024/01/15 10:17:52;;;;;;;0.30;0.20;;;3.40;99.90;;;;;;4994146;28;20470;-63
2024/01/15 10:20:17;;;;;;;0.30;0.30;;;3.40;99.90;;;;;;4996201;28;20171;-64
2024/01/15 10:22:48;;;;;;;0.30;0.30;;;3.50;99.90;;;;;;4995839;28;20252;-64
2024/01/15 10:25:14;;;;;;;0.30;0.30;;;3.50;99.90;;;;;;4993836;28;20447;-64
2024/01/15 10:27:43;;;;;;;0.30;0.30;;;3.60;99.90;;;;;;5002537;28;20541;-66
2024/01/15 10:30:10;;;;;;;0.30;0.30;;;3.50;99.90;;;;;;4994167;28;20596;-63
2024/01/15 10:32:35;;;;;;;0.40;0.40;;;3.50;99.90;;;;;;4999179;28;20229;-65
2024/01/15 10:35:01;;;;;;;0.30;0.30;;;3.50;99.90;;;;;;4976379;28;20192;-64
2024/01/15 10:37:27;;;;;;;0.47;0.47;;;3.50;99.90;;;;;;4993692;28;20219;-63
2024/01/15 10:39:53;;;;;;;0.30;0.30;;;3.50;99.90;;;;;;4993677;28;20178;-63
2024/01/15 10:42:18;;;;;;;0.50;0.50;;;3.50;99.90;;;;;;4993969;28;20174;-66
2024/01/15 10:44:47;;;;;;;0.30;0.30;;;3.60;99.90;;;;;;4993289;28;20311;-63
2024/01/15 10:47:13;;;;;;;0.40;0.40;;;3.50;99.90;;;;;;5006949;28;20194;-63
2024/01/15 10:49:39;;;;;;;0.50;0.50;;;3.40;99.90;;;;;;5013557;28;20179;-63
2024/01/15 10:52:05;;;;;;;0.40;0.40;;;3.50;99.90;;;;;;5012803;28;20422;-60
2024/01/15 10:54:32;;;;;;;0.30;0.30;;;3.50;99.90;;;;;;4995667;28;20646;-64
2024/01/15 10:56:58;;;;;;;0.40;0.40;;;3.50;99.90;;;;;;4992875;28;20462;-65
2024/01/15 10:59:24;;;;;;;0.33;0.33;;;3.60;99.90;;;;;;4976260;28;20176;-62
2024/01/15 11:01:53;;;;;;;0.30;0.30;;;3.60;99.90;;;;;;5007167;28;20226;-68
2024/01/15 11:04:20;;;;;;;0.70;0.70;;;3.60;99.90;;;;;;4997221;28;20171;-64
2024/01/15 11:06:49;;;;;;;0.30;0.30;;;3.70;99.90;;;;;;4993545;28;20223;-64
2024/01/15 11:09:15;;;;;;;0.40;0.40;;;3.70;99.90;;;;;;4993288;28;20172;-64
2024/01/15 11:11:47;;;;;;;0.30;0.30;;;3.80;99.90;;;;;;4976251;28;20172;-64
2024/01/15 11:14:35;;;;;;;0.40;0.40;;;3.80;99.90;;;;;;4992989;28;20173;-64
2024/01/15 11:17:00;;;;;;;0.35;0.35;;;3.80;99.90;;;;;;5008741;28;20203;-64
2024/01/15 11:19:35;;;;;;;0.40;0.40;;;3.70;99.90;;;;;;4997245;28;20184;-69
2024/01/15 11:22:01;;;;;;;0.30;0.30;;;3.70;99.90;;;;;;4976487;28;20601;-64
2024/01/15 11:24:40;;;;;;;0.40;0.40;;;3.70;99.90;;;;;;4992983;28;20226;-63
2024/01/15 11:27:07;;;;;;;0.30;0.30;;;3.70;99.90;;;;;;4993255;28;20191;-66
2024/01/15 11:29:35;;;;;;;0.30;0.30;;;3.60;99.90;;;;;;4993455;28;20175;-65
2024/01/15 11:32:04;;;;;;;0.30;0.30;;;3.60;99.90;;;;;;5002646;28;20546;-67
2024/01/15 11:34:57;;;;;;;0.35;0.35;;;3.60;99.90;;;;;;5006696;28;20190;-65
2024/01/15 11:37:24;;;;;;;0.30;0.30;;;3.50;99.90;;;;;;5001490;28;20290;-65
2024/01/15 11:39:52;;;;;;;0.38;0.38;;;3.40;99.90;;;;;;5004480;28;20203;-64
2024/01/15 11:42:19;;;;;;;0.30;0.30;;;3.30;99.90;;;;;;4999699;28;20573;-62
2024/01/15 11:44:45;;;;;;;0.35;0.35;;;3.30;99.90;;;;;;4992770;28;20203;-64
2024/01/15 11:47:13;;;;;;;0.40;0.40;;;3.30;99.90;;;;;;5009735;28;20290;-64
2024/01/15 11:50:05;;;;;;;0.38;0.38;;;3.40;99.90;;;;;;4995593;28;20597;-64
2024/01/15 11:52:46;;;;;;;0.30;0.30;;;3.40;99.90;;;;;;5008724;28;20273;-64
2024/01/15 11:55:18;;;;;;;0.35;0.35;;;3.50;99.90;;;;;;4987741;28;20211;-64
2024/01/15 11:57:51;;;;;;;0.40;0.40;;;3.50;99.90;;;;;;4996557;28;20333;-63
2024/01/15 12:00:17;;;;;;;0.40;0.40;;;3.50;99.90;;;;;;5011003;28;20255;-63
2024/01/15 12:02:44;;;;;;;0.30;0.30;;;3.50;99.90;;;;;;5006125;28;20655;-63
2024/01/15 12:05:15;;;;;;;0.40;0.40;;;3.40;99.90;;;;;;4993623;28;20189;-62
2024/01/15 12:07:45;;;;;;;0.30;0.30;;;3.40;99.90;;;;;;4980880;28;20680;-63
2024/01/15 12:10:15;;;;;;;0.30;0.30;;;3.40;99.90;;;;;;4996402;28;20246;-63
2024/01/15 12:13:00;;;;;;;0.30;0.30;;;3.40;99.90;;;;;;4996609;28;20168;-63
2024/01/15 12:15:28;;;;;;;0.30;0.30;;;3.30;99.90;;;;;;4998752;28;20202;-63
2024/01/15 12:17:59;;;;;;;0.30;0.30;;;3.20;99.90;;;;;;5015697;28;20209;-63
2024/01/15 12:20:29;;;;;;;0.43;0.43;;;3.20;99.90;;;;;;5013316;28;20193;-64
2024/01/15 12:22:55;;;;;;;0.30;0.30;;;3.20;99.90;;;;;;4996157;28;20605;-63
2024/01/15 12:25:23;;;;;;;0.40;0.40;;;3.10;99.90;;;;;;4982952;28;20275;-63
2024/01/15 12:27:49;;;;;;;0.38;0.38;;;3.10;99.90;;;;;;5006112;28;20545;-64
2024/01/15 12:30:18;;;;;;;0.30;0.30;;;3.10;99.90;;;;;;4997298;28;20183;-64
2024/01/15 12:32:44;;;;;;;0.38;0.38;;;3.00;99.90;;;;;;4994296;28;20498;-69
2024/01/15 12:35:11;;;;;;;0.30;0.30;;;3.00;99.90;;;;;;4997779;28;20285;-64
2024/01/15 12:37:38;;;;;;;0.35;0.35;;;3.00;99.90;;;;;;5014357;28;20262;-73
2024/01/15 12:40:06;;;;;;;0.30;0.30;;;3.00;99.90;;;;;;5004723;28;20247;-65
2024/01/15 12:42:33;;;;;;;0.30;0.30;;;3.00;99.90;;;;;;5015884;28;20171;-65
2024/01/15 12:44:59;;;;;;;0.32;0.32;;;2.90;99.90;;;;;;5015127;28;20585;-65
2024/01/15 12:47:26;;;;;;;0.30;0.30;;;2.90;99.90;;;;;;4996417;28;20179;-66
2024/01/15 12:49:55;;;;;;;0.30;0.30;;;2.80;99.90;;;;;;4998204;28;20168;-69
2024/01/15 12:52:23;;;;;;;0.30;0.30;;;2.80;99.90;;;;;;5007167;28;20191;-67
2024/01/15 12:54:50;;;;;;;0.30;0.30;;;2.80;99.90;;;;;;5014203;28;20174;-68
2024/01/15 12:57:16;;;;;;;0.30;0.30;;;2.80;99.90;;;;;;5009757;28;20200;-67
2024/01/15 12:59:44;;;;;;;0.30;0.30;;;2.80;99.90;;;;;;5007513;28;20181;-71
2024/01/15 13:02:10;;;;;;;0.30;0.30;;;2.70;99.90;;;;;;4996200;28;20179;-70
2024/01/15 13:04:36;;;;;;;0.40;0.40;;;2.70;99.90;;;;;;4995229;28;20538;-65
2024/01/15 13:07:02;;;;;;;0.40;0.40;;;2.60;99.90;;;;;;4995492;28;20294;-73
2024/01/15 13:09:27;;;;;;;0.38;0.38;;;2.50;99.90;;;;;;4995787;28;20178;-67
2024/01/15 13:11:54;;;;;;;0.40;0.40;;;2.50;99.90;;;;;;4995524;28;20525;-70
2024/01/15 13:14:19;;;;;;;0.30;0.30;;;2.50;99.90;;;;;;4997058;28;20510;-66
2024/01/15 13:16:45;;;;;;;0.30;0.30;;;2.40;99.90;;;;;;4995454;28;20250;-67
2024/01/15 13:19:11;;;;;;;0.30;0.30;;;2.40;99.90;;;;;;4994700;28;20239;-66
2024/01/15 13:21:40;;;;;;;0.30;0.30;;;2.40;99.90;;;;;;4994822;28;20235;-67
2024/01/15 13:24:06;;;;;;;0.38;0.38;;;2.40;99.90;;;;;;4994387;28;20403;-65
2024/01/15 13:26:36;;;;;;;0.30;0.30;;;2.40;99.90;;;;;;4994866;28;20585;-65
2024/01/15 13:29:03;;;;;;;0.30;0.30;;;2.40;99.90;;;;;;4995155;28;20183;-66
2024/01/15 13:31:29;;;;;;;0.40;0.40;;;2.40;99.90;;;;;;4995147;28;20170;-65
2024/01/15 13:33:55;;;;;;;0.40;0.40;;;2.40;99.90;;;;;;4995247;28;20182;-68
2024/01/15 13:36:23;;;;;;;0.47;0.47;;;2.40;99.90;;;;;;4977400;28;20187;-67
2024/01/15 13:38:49;;;;;;;0.40;0.40;;;2.40;99.90;;;;;;4994838;28;20222;-69
2024/01/15 13:41:16;;;;;;;0.30;0.30;;;2.40;99.90;;;;;;4975498;28;20673;-69
2024/01/15 13:43:41;;;;;;;0.30;0.30;;;2.30;99.90;;;;;;4985634;28;20171;-63
2024/01/15 13:46:07;;;;;;;0.40;0.40;;;2.40;99.90;;;;;;4994377;28;20262;-67
2024/01/15 13:48:32;;;;;;;0.37;0.37;;;2.40;99.90;;;;;;4995128;28;20175;-66
2024/01/15 13:50:59;;;;;;;0.33;0.33;;;2.30;99.90;;;;;;4995273;28;20171;-63
2024/01/15 13:53:25;;;;;;;0.30;0.30;;;2.40;99.90;;;;;;4995191;28;20175;-71
2024/01/15 13:55:51;;;;;;;0.38;0.38;;;2.40;99.90;;;;;;4994498;28;20191;-64
2024/01/15 13:58:18;;;;;;;0.30;0.30;;;2.40;99.90;;;;;;4994880;28;20553;-69
2024/01/15 14:00:44;;;;;;;0.30;0.30;;;2.40;99.90;;;;;;4994819;28;20168;-69
2024/01/15 14:03:09;;;;;;;0.30;0.30;;;2.40;99.90;;;;;;4977344;28;20178;-70
2024/01/15 14:05:35;;;;;;;0.40;0.40;;;2.40;99.90;;;;;;4994487;28;20653;-69
2024/01/15 14:08:01;;;;;;;0.40;0.40;;;2.30;99.90;;;;;;4994636;28;20197;-67
2024/01/15 14:10:26;;;;;;;0.43;0.43;;;2.30;99.90;;;;;;4994921;28;20168;-71
2024/01/15 14:12:52;;;;;;;0.40;0.40;;;2.30;99.90;;;;;;5001658;28;20205;-67
2024/01/15 14:15:19;;;;;;;0.40;0.40;;;2.30;99.90;;;;;;4996283;28;20668;-70
2024/01/15 14:17:44;;;;;;;0.40;0.40;;;2.30;99.90;;;;;;5013923;28;20202;-66
2024/01/15 14:20:10;;;;;;;0.30;0.30;;;2.30;99.90;;;;;;5014221;28;20609;-66
2024/01/15 14:22:36;;;;;;;0.40;0.40;;;2.30;99.90;;;;;;5013850;28;20166;-64
2024/01/15 14:25:01;;;;;;;0.40;0.40;;;2.30;99.90;;;;;;5013418;28;20177;-65
2024/01/15 14:27:27;;;;;;;0.40;0.40;;;2.30;99.90;;;;;;5013614;28;20175;-65
2024/01/15 14:29:52;;;;;;;0.40;0.40;;;2.30;99.90;;;;;;5003574;28;20187;-65
2024/01/15 14:32:18;;;;;;;0.40;0.40;;;2.40;99.90;;;;;;4993668;28;20263;-64
2024/01/15 14:34:44;;;;;;;0.40;0.40;;;2.30;99.90;;;;;;4993761;28;20190;-63
2024/01/15 14:37:09;;;;;;;0.37;0.37;;;2.30;99.90;;;;;;4994029;28;20282;-66
2024/01/15 14:39:35;;;;;;;0.30;0.30;;;2.30;99.90;;;;;;4993875;28;20174;-65
2024/01/15 14:42:00;;;;;;;0.37;0.37;;;2.30;99.90;;;;;;4994074;28;20175;-65
2024/01/15 14:44:28;;;;;;;0.40;0.40;;;2.20;99.90;;;;;;4993585;28;20206;-65
2024/01/15 14:46:54;;;;;;;0.40;0.40;;;2.20;99.90;;;;;;4994185;28;20202;-65
2024/01/15 14:49:20;;;;;;;0.38;0.38;;;2.20;99.90;;;;;;4993769;28;20170;-65
2024/01/15 14:51:45;;;;;;;0.30;0.30;;;2.10;99.90;;;;;;4975418;28;20254;-65
2024/01/15 14:54:11;;;;;;;0.50;0.50;;;2.10;99.90;;;;;;4992738;28;20190;-66
2024/01/15 14:56:37;;;;;;;0.33;0.33;;;2.00;99.90;;;;;;4992758;28;20199;-65
2024/01/15 14:59:02;;;;;;;0.40;0.40;;;2.00;99.90;;;;;;4992897;28;20211;-65
2024/01/15 15:01:28;;;;;;;0.40;0.40;;;2.00;99.90;;;;;;4992967;28;20179;-65
2024/01/15 15:03:53;;;;;;;0.40;0.40;;;1.90;99.90;;;;;;4975515;28;20545;-66
2024/01/15 15:06:20;;;;;;;0.40;0.40;;;1.90;99.90;;;;;;4993250;28;20222;-66
2024/01/15 15:08:46;;;;;;;0.50;0.50;;;1.80;99.90;;;;;;4993569;28;20199;-67
2024/01/15 15:11:12;;;;;;;0.40;0.40;;;1.70;99.90;;;;;;4993961;28;20172;-64
2024/01/15 15:13:37;;;;;;;0.30;0.30;;;1.80;99.90;;;;;;4993830;28;20171;-66
2024/01/15 15:16:03;;;;;;;0.43;0.43;;;1.70;99.90;;;;;;4976071;28;20534;-63
2024/01/15 15:18:30;;;;;;;0.40;0.40;;;1.70;99.90;;;;;;4993750;28;20195;-66
2024/01/15 15:20:56;;;;;;;0.50;0.50;;;1.60;99.90;;;;;;4993849;28;20496;-65
2024/01/15 15:23:21;;;;;;;0.40;0.40;;;1.60;99.90;;;;;;4995017;28;20171;-66
2024/01/15 15:25:47;;;;;;;0.40;0.40;;;1.60;99.90;;;;;;5012834;28;20424;-65
2024/01/15 15:28:14;;;;;;;0.50;0.50;;;1.60;99.90;;;;;;5013058;28;20256;-65
2024/01/15 15:30:40;;;;;;;0.40;0.40;;;1.60;99.90;;;;;;5013382;28;20258;-66
2024/01/15 15:33:06;;;;;;;0.37;0.37;;;1.50;99.90;;;;;;5000328;28;20217;-66
2024/01/15 15:35:31;;;;;;;0.30;0.30;;;1.50;99.90;;;;;;4993018;28;20569;-67
2024/01/15 15:37:57;;;;;;;0.40;0.40;;;1.60;99.90;;;;;;4993544;28;20223;-65
2024/01/15 15:40:24;;;;;;;0.30;0.30;;;1.50;99.90;;;;;;4993720;28;20656;-67
2024/01/15 15:42:50;;;;;;;0.40;0.40;;;1.50;99.90;;;;;;4995528;28;20167;-67
2024/01/15 15:45:15;;;;;;;0.30;0.30;;;1.50;99.90;;;;;;4996821;28;20253;-68
2024/01/15 15:47:41;;;;;;;0.30;0.30;;;1.50;99.90;;;;;;5008917;28;20178;-65
2024/01/15 15:50:07;;;;;;;0.50;0.50;;;1.50;99.90;;;;;;4999287;28;20171;-66
2024/01/15 15:52:33;;;;;;;1.58;1.05;;;1.50;99.90;;;;;;5016774;28;20171;-64
2024/01/15 15:55:00;;;;;;;0.40;0.40;;;1.60;99.90;;;;;;5016331;28;20502;-66
2024/01/15 15:57:27;;;;;;;0.45;0.45;;;1.60;99.90;;;;;;5016618;28;20653;-65
2024/01/15 15:59:54;;;;;;;0.45;0.45;;;1.60;99.90;;;;;;5016650;28;20163;-66
2024/01/15 16:02:20;;;;;;;0.40;0.40;;;1.60;99.90;;;;;;5005966;28;20176;-64
2024/01/15 16:04:46;;;;;;;0.30;0.30;;;1.60;99.90;;;;;;4979099;28;20183;-66
2024/01/15 16:07:11;;;;;;;0.30;0.30;;;1.60;99.90;;;;;;4997068;28;20206;-67
2024/01/15 16:09:37;;;;;;;0.40;0.40;;;1.60;99.90;;;;;;4997001;28;20486;-66
2024/01/15 16:12:03;;;;;;;0.30;0.30;;;1.50;99.90;;;;;;4996970;28;20414;-65
2024/01/15 16:14:29;;;;;;;0.30;0.30;;;1.50;99.90;;;;;;4996883;28;20172;-65
2024/01/15 16:16:57;;;;;;;0.40;0.40;;;1.50;99.90;;;;;;4996374;28;20660;-67
2024/01/15 16:19:23;;;;;;;0.38;0.38;;;1.50;99.90;;;;;;4996664;28;20243;-65
2024/01/15 16:21:49;;;;;;;0.40;0.40;;;1.50;99.90;;;;;;4997008;28;20171;-66
2024/01/15 16:24:15;;;;;;;0.40;0.40;;;1.40;99.90;;;;;;4996533;28;20226;-64
2024/01/15 16:26:41;;;;;;;0.97;0.97;;;1.40;99.90;;;;;;4996374;28;20195;-66
2024/01/15 16:29:07;;;;;;;0.43;0.43;;;1.40;99.90;;;;;;4996732;28;20180;-64
2024/01/15 16:31:33;;;;;;;0.50;0.50;;;1.30;99.90;;;;;;4996617;28;20198;-65
2024/01/15 16:33:59;;;;;;;0.40;0.40;;;1.30;99.90;;;;;;4979133;28;20171;-65
2024/01/15 16:36:25;;;;;;;0.40;0.40;;;1.30;99.90;;;;;;4996004;28;20191;-65
2024/01/15 16:38:51;;;;;;;0.40;0.40;;;1.30;99.90;;;;;;4996486;28;20533;-65
2024/01/15 16:41:17;;;;;;;0.40;0.40;;;1.30;99.90;;;;;;4996409;28;20210;-65
2024/01/15 16:43:43;;;;;;;0.40;0.40;;;1.30;99.90;;;;;;4996293;28;20163;-66
2024/01/15 16:46:09;;;;;;;0.37;0.37;;;1.20;99.90;;;;;;5002472;28;20266;-64
2024/01/15 16:48:34;;;;;;;0.40;0.40;;;1.20;99.90;;;;;;5015923;28;20186;-64
2024/01/15 16:51:00;;;;;;;0.30;0.30;;;1.10;99.90;;;;;;5015805;28;20920;-65
2024/01/15 16:53:26;;;;;;;0.40;0.40;;;1.10;99.90;;;;;;5015007;28;20167;-66
2024/01/15 16:55:54;;;;;;;0.30;0.30;;;1.00;99.90;;;;;;5015019;28;20664;-65
2024/01/15 16:58:20;;;;;;;0.40;0.40;;;1.00;99.90;;;;;;5015487;28;20234;-64
2024/01/15 17:00:48;;;;;;;0.50;0.50;;;1.00;99.90;;;;;;5009054;28;20198;-65
2024/01/15 17:03:14;;;;;;;0.40;0.40;;;1.00;99.90;;;;;;4996024;28;20546;-65
2024/01/15 17:05:40;;;;;;;0.30;0.30;;;1.00;99.90;;;;;;5012162;28;20190;-64
2024/01/15 17:08:06;;;;;;;0.30;0.30;;;0.90;99.90;;;;;;5014613;28;20193;-66
2024/01/15 17:10:33;;;;;;;0.40;0.40;;;1.00;99.90;;;;;;5014780;28;20440;-64
2024/01/15 17:13:03;;;;;;;0.40;0.40;;;1.00;99.90;;;;;;4997195;28;20178;-65
2024/01/15 17:15:29;;;;;;;0.40;0.40;;;1.00;99.90;;;;;;4996442;28;20541;-65
2024/01/15 17:17:55;;;;;;;0.40;0.40;;;1.10;99.90;;;;;;5014816;28;20209;-66
2024/01/15 17:20:22;;;;;;;0.40;0.40;;;1.10;99.90;;;;;;5014239;28;20605;-66
2024/01/15 17:22:47;;;;;;;0.30;0.30;;;1.20;99.90;;;;;;5001479;28;20625;-62
2024/01/15 17:25:13;;;;;;;1.43;1.43;;;1.20;99.90;;;;;;4997667;28;20272;-62
2024/01/15 17:27:39;;;;;;;0.40;0.40;;;1.30;99.90;;;;;;4995600;28;20176;-64
2024/01/15 17:30:07;;;;;;;0.43;0.43;;;1.30;99.90;;;;;;5001629;28;20214;-64
2024/01/15 17:32:33;;;;;;;0.40;0.40;;;1.30;99.90;;;;;;4994887;28;20180;-64
2024/01/15 17:34:59;;;;;;;0.30;0.30;;;1.40;99.90;;;;;;4994268;28;20175;-64
2024/01/15 17:37:25;;;;;;;0.30;0.30;;;1.40;99.90;;;;;;4994143;28;20206;-67
2024/01/15 17:39:51;;;;;;;0.30;0.30;;;1.40;99.90;;;;;;4992475;28;20184;-64
2024/01/15 17:42:17;;;;;;;0.40;0.40;;;1.40;99.90;;;;;;4992522;28;20238;-63
2024/01/15 17:44:43;;;;;;;0.30;0.30;;;1.40;99.90;;;;;;4994685;28;20294;-64
2024/01/15 17:47:09;;;;;;;0.40;0.40;;;1.40;99.90;;;;;;4998717;28;20341;-65
2024/01/15 17:49:37;;;;;;;0.40;0.40;;;1.40;99.90;;;;;;4992589;28;20217;-62
2024/01/15 17:52:04;;;;;;;0.40;0.40;;;1.30;99.90;;;;;;5012804;28;20201;-63
2024/01/15 17:54:30;;;;;;;0.50;0.50;;;1.30;99.90;;;;;;5013942;28;20182;-63
2024/01/15 17:56:56;;;;;;;0.40;0.40;;;1.40;99.90;;;;;;5002261;28;20206;-65
2024/01/15 17:59:22;;;;;;;0.35;0.35;;;1.40;99.90;;;;;;4994865;28;20167;-62